sensor_id;sensor_type;location;lat;lon;timestamp;pressure;altitude;pressure_sealevel;temperature;humidity
47374;BME280;33123;50.118;10.272;2022-11-15T00:00:44;97391.94;;;11.75;61.88
47374;BME280;33123;50.118;10.272;2022-11-15T00:03:13;97482.41;;;12.43;62.06
47374;BME280;33123;50.118;10.272;2022-11-15T00:05:40;97482.97;;;12.45;61.86
47374;BME280;33123;50.118;10.272;2022-11-15T00:08:06;97230.50;;;10.90;61.74
47374;BME280;33123;50.118;10.272;2022-11-15T00:10:33;97183.75;;;10.65;61.67
47374;BME280;33123;50.118;10.272;2022-11-15T00:13:00;97460.22;;;12.29;61.39
47374;BME280;33123;50.118;10.272;2022-11-15T00:15:26;97356.53;;;11.66;61.47
47374;BME280;33123;50.118;10.272;2022-11-15T00:17:54;97231.28;;;10.90;61.40
47374;BME280;33123;50.118;10.272;2022-11-15T00:20:21;97195.09;;;10.65;61.12
47374;BME280;33123;50.118;10.272;2022-11-15T00:22:48;97422.69;;;12.22;60.89
47374;BME280;33123;50.118;10.272;2022-11-15T00:25:14;97283.66;;;11.44;60.95
47374;BME280;33123;50.118;10.272;2022-11-15T00:27:41;97458.41;;;12.55;61.20
47374;BME280;33123;50.118;10.272;2022-11-15T00:30:08;97254.06;;;11.22;61.38
47374;BME280;33123;50.118;10.272;2022-11-15T00:32:35;97452.03;;;12.51;61.00
47374;BME280;33123;50.118;10.272;2022-11-15T00:35:04;97121.72;;;10.31;61.02
47374;BME280;33123;50.118;10.272;2022-11-15T00:37:31;97173.78;;;10.72;61.13
47374;BME280;33123;50.118;10.272;2022-11-15T00:39:58;97117.78;;;10.29;60.89
47374;BME280;33123;50.118;10.272;2022-11-15T00:42:24;97254.06;;;11.17;61.43
47374;BME280;33123;50.118;10.272;2022-11-15T00:44:51;97350.00;;;11.83;61.25
47374;BME280;33123;50.118;10.272;2022-11-15T00:47:17;97270.44;;;11.29;61.01
47374;BME280;33123;50.118;10.272;2022-11-15T00:49:44;97146.06;;;10.59;61.06
47374;BME280;33123;50.118;10.272;2022-11-15T00:52:12;97381.44;;;11.90;60.91
47374;BME280;33123;50.118;10.272;2022-11-15T00:54:39;97466.31;;;12.60;61.00
47374;BME280;33123;50.118;10.272;2022-11-15T00:57:06;97414.50;;;12.28;61.47
47374;BME280;33123;50.118;10.272;2022-11-15T00:59:32;97397.84;;;12.12;61.57
47374;BME280;33123;50.118;10.272;2022-11-15T01:01:59;97204.94;;;10.95;61.49
47374;BME280;33123;50.118;10.272;2022-11-15T01:04:26;97455.75;;;12.55;61.73
47374;BME280;33123;50.118;10.272;2022-11-15T01:06:53;97473.19;;;12.56;61.74
47374;BME280;33123;50.118;10.272;2022-11-15T01:09:21;97465.00;;;12.52;61.56
47374;BME280;33123;50.118;10.272;2022-11-15T01:11:48;97458.66;;;12.53;61.85
47374;BME280;33123;50.118;10.272;2022-11-15T01:14:15;97456.00;;;12.53;62.02
47374;BME280;33123;50.118;10.272;2022-11-15T01:16:42;97434.59;;;12.39;62.53
47374;BME280;33123;50.118;10.272;2022-11-15T01:19:08;97160.28;;;10.58;61.98
47374;BME280;33123;50.118;10.272;2022-11-15T01:21:35;97206.44;;;10.71;62.26
47374;BME280;33123;50.118;10.272;2022-11-15T01:24:02;97444.91;;;12.46;62.83
47374;BME280;33123;50.118;10.272;2022-11-15T01:26:30;97446.47;;;12.47;62.79
47374;BME280;33123;50.118;10.272;2022-11-15T01:28:57;97164.25;;;10.66;62.29
47374;BME280;33123;50.118;10.272;2022-11-15T01:31:24;97175.81;;;10.60;62.93
47374;BME280;33123;50.118;10.272;2022-11-15T01:33:50;97380.91;;;11.98;63.38
47374;BME280;33123;50.118;10.272;2022-11-15T01:36:18;97459.16;;;12.35;63.59
47374;BME280;33123;50.118;10.272;2022-11-15T01:38:48;97429.81;;;12.26;63.52
47374;BME280;33123;50.118;10.272;2022-11-15T01:41:20;97319.03;;;11.53;63.85
47374;BME280;33123;50.118;10.272;2022-11-15T01:43:49;97307.91;;;11.36;63.48
47374;BME280;33123;50.118;10.272;2022-11-15T01:46:25;97359.72;;;11.73;63.82
47374;BME280;33123;50.118;10.272;2022-11-15T01:48:56;97192.19;;;10.62;63.59
47374;BME280;33123;50.118;10.272;2022-11-15T01:51:25;97125.06;;;10.12;63.72
47374;BME280;33123;50.118;10.272;2022-11-15T01:53:58;97296.78;;;11.19;64.04
47374;BME280;33123;50.118;10.272;2022-11-15T01:56:30;97194.22;;;10.44;64.05
47374;BME280;33123;50.118;10.272;2022-11-15T01:59:00;97195.75;;;10.35;64.04
47374;BME280;33123;50.118;10.272;2022-11-15T02:01:30;97229.31;;;10.60;63.93
47374;BME280;33123;50.118;10.272;2022-11-15T02:03:59;97356.44;;;11.35;64.69
47374;BME280;33123;50.118;10.272;2022-11-15T02:06:27;97415.19;;;11.78;64.51
47374;BME280;33123;50.118;10.272;2022-11-15T02:08:54;97399.31;;;11.68;65.25
47374;BME280;33123;50.118;10.272;2022-11-15T02:11:22;97403.03;;;11.72;64.83
47374;BME280;33123;50.118;10.272;2022-11-15T02:13:49;97333.47;;;11.25;64.55
47374;BME280;33123;50.118;10.272;2022-11-15T02:16:26;97373.13;;;11.46;64.53
47374;BME280;33123;50.118;10.272;2022-11-15T02:19:00;97306.44;;;10.93;64.45
47374;BME280;33123;50.118;10.272;2022-11-15T02:21:36;97398.66;;;11.35;64.50
47374;BME280;33123;50.118;10.272;2022-11-15T02:24:35;97385.97;;;11.22;64.33
47374;BME280;33123;50.118;10.272;2022-11-15T02:27:24;97240.16;;;10.21;64.20
47374;BME280;33123;50.118;10.272;2022-11-15T02:30:23;97224.28;;;10.06;65.28
47374;BME280;33123;50.118;10.272;2022-11-15T02:32:52;97372.13;;;10.94;65.29
47374;BME280;33123;50.118;10.272;2022-11-15T02:35:28;97226.97;;;9.79;65.17
47374;BME280;33123;50.118;10.272;2022-11-15T02:37:57;97355.66;;;10.77;65.91
47374;BME280;33123;50.118;10.272;2022-11-15T02:40:35;97353.25;;;10.70;65.50
47374;BME280;33123;50.118;10.272;2022-11-15T02:43:08;97287.75;;;10.10;65.31
47374;BME280;33123;50.118;10.272;2022-11-15T02:46:01;97086.84;;;8.60;64.40
47374;BME280;33123;50.118;10.272;2022-11-15T02:48:31;96897.88;;;7.35;65.04
47374;BME280;33123;50.118;10.272;2022-11-15T02:50:59;97275.47;;;9.88;66.89
47374;BME280;33123;50.118;10.272;2022-11-15T02:53:27;97274.66;;;9.88;67.46
47374;BME280;33123;50.118;10.272;2022-11-15T02:55:55;97258.56;;;9.79;67.71
47374;BME280;33123;50.118;10.272;2022-11-15T02:58:45;97318.00;;;10.07;67.97
47374;BME280;33123;50.118;10.272;2022-11-15T03:01:24;97274.50;;;9.94;68.29
47374;BME280;33123;50.118;10.272;2022-11-15T03:04:00;97315.56;;;10.27;68.38
47374;BME280;33123;50.118;10.272;2022-11-15T03:06:35;97319.56;;;10.35;67.87
47374;BME280;33123;50.118;10.272;2022-11-15T03:09:10;97316.94;;;10.35;67.58
47374;BME280;33123;50.118;10.272;2022-11-15T03:11:44;97359.81;;;10.68;67.69
47374;BME280;33123;50.118;10.272;2022-11-15T03:14:21;97211.06;;;9.64;67.23
47374;BME280;33123;50.118;10.272;2022-11-15T03:16:58;97350.84;;;10.64;66.96
47374;BME280;33123;50.118;10.272;2022-11-15T03:19:31;97112.84;;;9.16;66.55
47374;BME280;33123;50.118;10.272;2022-11-15T03:22:02;97354.22;;;10.59;66.20
47374;BME280;33123;50.118;10.272;2022-11-15T03:24:31;97368.22;;;10.65;65.99
47374;BME280;33123;50.118;10.272;2022-11-15T03:27:00;97163.88;;;9.20;66.22
47374;BME280;33123;50.118;10.272;2022-11-15T03:29:32;97289.28;;;10.00;66.08
47374;BME280;33123;50.118;10.272;2022-11-15T03:32:03;97325.75;;;10.19;66.29
47374;BME280;33123;50.118;10.272;2022-11-15T03:34:35;97056.25;;;8.44;66.48
47374;BME280;33123;50.118;10.272;2022-11-15T03:37:04;97272.00;;;9.83;67.00
47374;BME280;33123;50.118;10.272;2022-11-15T03:39:32;96951.28;;;7.73;66.83
47374;BME280;33123;50.118;10.272;2022-11-15T03:42:08;97270.16;;;9.78;66.90
47374;BME280;33123;50.118;10.272;2022-11-15T03:44:42;97131.41;;;8.77;66.79
47374;BME280;33123;50.118;10.272;2022-11-15T03:47:16;97189.25;;;9.04;66.89
47374;BME280;33123;50.118;10.272;2022-11-15T03:49:46;97355.25;;;10.21;66.92
47374;BME280;33123;50.118;10.272;2022-11-15T03:52:17;96956.28;;;7.53;66.86
47374;BME280;33123;50.118;10.272;2022-11-15T03:54:49;97350.19;;;10.14;67.44
47374;BME280;33123;50.118;10.272;2022-11-15T03:57:16;97116.34;;;8.40;66.71
47374;BME280;33123;50.118;10.272;2022-11-15T03:59:43;97084.84;;;8.40;66.58
47374;BME280;33123;50.118;10.272;2022-11-15T04:02:21;97100.13;;;8.49;66.87
47374;BME280;33123;50.118;10.272;2022-11-15T04:04:51;97268.59;;;9.50;66.71
47374;BME280;33123;50.118;10.272;2022-11-15T04:07:18;97114.44;;;8.36;66.05
47374;BME280;33123;50.118;10.272;2022-11-15T04:09:44;97091.78;;;8.30;66.58
47374;BME280;33123;50.118;10.272;2022-11-15T04:12:31;97345.50;;;9.89;67.51
47374;BME280;33123;50.118;10.272;2022-11-15T04:14:59;97341.00;;;9.85;67.73
47374;BME280;33123;50.118;10.272;2022-11-15T04:17:41;97348.88;;;9.85;67.67
47374;BME280;33123;50.118;10.272;2022-11-15T04:20:11;97060.03;;;7.87;67.84
47374;BME280;33123;50.118;10.272;2022-11-15T04:22:56;97110.69;;;8.32;67.93
47374;BME280;33123;50.118;10.272;2022-11-15T04:25:41;97106.94;;;8.23;68.07
47374;BME280;33123;50.118;10.272;2022-11-15T04:28:08;97104.72;;;8.14;68.32
47374;BME280;33123;50.118;10.272;2022-11-15T04:30:35;96956.28;;;7.31;67.67
47374;BME280;33123;50.118;10.272;2022-11-15T04:33:03;97335.94;;;9.78;67.65
47374;BME280;33123;50.118;10.272;2022-11-15T04:35:30;97097.03;;;8.08;66.72
47374;BME280;33123;50.118;10.272;2022-11-15T04:37:58;97332.69;;;9.71;66.16
47374;BME280;33123;50.118;10.272;2022-11-15T04:40:23;97154.75;;;8.46;65.61
47374;BME280;33123;50.118;10.272;2022-11-15T04:42:50;97248.91;;;9.04;66.43
47374;BME280;33123;50.118;10.272;2022-11-15T04:45:17;97144.03;;;8.31;66.46
47374;BME280;33123;50.118;10.272;2022-11-15T04:47:44;97170.72;;;8.23;66.39
47374;BME280;33123;50.118;10.272;2022-11-15T04:50:13;97326.56;;;9.38;66.72
47374;BME280;33123;50.118;10.272;2022-11-15T04:52:40;97316.03;;;9.33;66.80
47374;BME280;33123;50.118;10.272;2022-11-15T04:55:07;96917.34;;;6.62;66.90
47374;BME280;33123;50.118;10.272;2022-11-15T04:57:34;97312.22;;;9.24;67.86
47374;BME280;33123;50.118;10.272;2022-11-15T05:00:01;97304.28;;;9.19;67.83
47374;BME280;33123;50.118;10.272;2022-11-15T05:02:28;97068.69;;;7.66;67.67
47374;BME280;33123;50.118;10.272;2022-11-15T05:05:16;97305.22;;;9.08;67.72
47374;BME280;33123;50.118;10.272;2022-11-15T05:07:42;97044.22;;;7.38;68.27
47374;BME280;33123;50.118;10.272;2022-11-15T05:10:09;97302.22;;;8.99;68.95
47374;BME280;33123;50.118;10.272;2022-11-15T05:12:36;97093.91;;;7.67;68.68
47374;BME280;33123;50.118;10.272;2022-11-15T05:15:03;97028.81;;;7.25;68.70
47374;BME280;33123;50.118;10.272;2022-11-15T05:17:30;97147.41;;;7.88;69.33
47374;BME280;33123;50.118;10.272;2022-11-15T05:19:56;97101.84;;;7.72;69.10
47374;BME280;33123;50.118;10.272;2022-11-15T05:22:25;97109.19;;;7.75;68.78
47374;BME280;33123;50.118;10.272;2022-11-15T05:24:51;97111.91;;;7.80;68.55
47374;BME280;33123;50.118;10.272;2022-11-15T05:27:18;97279.72;;;8.86;68.51
47374;BME280;33123;50.118;10.272;2022-11-15T05:29:45;97281.81;;;8.84;68.66
47374;BME280;33123;50.118;10.272;2022-11-15T05:32:12;97056.13;;;7.29;68.93
47374;BME280;33123;50.118;10.272;2022-11-15T05:34:39;97120.16;;;7.50;68.93
47374;BME280;33123;50.118;10.272;2022-11-15T05:37:05;97135.25;;;7.82;69.08
47374;BME280;33123;50.118;10.272;2022-11-15T05:39:33;97281.69;;;8.74;69.03
47374;BME280;33123;50.118;10.272;2022-11-15T05:42:02;96950.28;;;6.58;68.43
47374;BME280;33123;50.118;10.272;2022-11-15T05:44:34;97136.78;;;7.78;68.32
47374;BME280;33123;50.118;10.272;2022-11-15T05:47:04;97060.75;;;7.22;68.17
47374;BME280;33123;50.118;10.272;2022-11-15T05:49:34;97278.06;;;8.58;67.93
47374;BME280;33123;50.118;10.272;2022-11-15T05:52:05;97273.53;;;8.54;67.70
47374;BME280;33123;50.118;10.272;2022-11-15T05:54:35;97005.00;;;6.76;68.43
47374;BME280;33123;50.118;10.272;2022-11-15T05:57:03;97009.44;;;6.59;68.36
47374;BME280;33123;50.118;10.272;2022-11-15T05:59:31;97129.97;;;7.43;68.24
47374;BME280;33123;50.118;10.272;2022-11-15T06:01:59;97274.75;;;8.29;68.51
47374;BME280;33123;50.118;10.272;2022-11-15T06:04:26;97220.72;;;7.94;69.32
47374;BME280;33123;50.118;10.272;2022-11-15T06:06:53;96956.97;;;6.20;70.14
47374;BME280;33123;50.118;10.272;2022-11-15T06:09:19;97265.16;;;8.18;70.36
47374;BME280;33123;50.118;10.272;2022-11-15T06:11:47;97269.81;;;8.16;70.27
47374;BME280;33123;50.118;10.272;2022-11-15T06:14:14;97094.56;;;6.90;70.56
47374;BME280;33123;50.118;10.272;2022-11-15T06:16:41;97020.84;;;6.36;70.46
47374;BME280;33123;50.118;10.272;2022-11-15T06:19:07;97265.53;;;8.10;71.02
47374;BME280;33123;50.118;10.272;2022-11-15T06:21:34;97062.09;;;6.74;71.18
47374;BME280;33123;50.118;10.272;2022-11-15T06:24:01;97041.63;;;6.43;70.69
47374;BME280;33123;50.118;10.272;2022-11-15T06:26:27;97129.66;;;6.89;71.25
47374;BME280;33123;50.118;10.272;2022-11-15T06:28:55;97178.53;;;7.46;72.54
47374;BME280;33123;50.118;10.272;2022-11-15T06:31:22;97051.66;;;6.46;71.74
47374;BME280;33123;50.118;10.272;2022-11-15T06:33:48;97108.22;;;6.92;72.18
47374;BME280;33123;50.118;10.272;2022-11-15T06:36:16;97070.97;;;6.73;72.31
47374;BME280;33123;50.118;10.272;2022-11-15T06:38:43;97068.03;;;6.70;71.62
47374;BME280;33123;50.118;10.272;2022-11-15T06:41:12;97216.59;;;7.65;71.34
47374;BME280;33123;50.118;10.272;2022-11-15T06:43:39;97304.34;;;8.25;70.41
47374;BME280;33123;50.118;10.272;2022-11-15T06:46:07;97313.56;;;8.27;69.99
47374;BME280;33123;50.118;10.272;2022-11-15T06:48:34;97141.31;;;6.98;69.96
47374;BME280;33123;50.118;10.272;2022-11-15T06:51:02;97164.06;;;7.26;69.27
47374;BME280;33123;50.118;10.272;2022-11-15T06:53:29;97074.44;;;6.62;70.22
47374;BME280;33123;50.118;10.272;2022-11-15T06:55:58;97307.22;;;8.23;71.19
47374;BME280;33123;50.118;10.272;2022-11-15T06:58:25;97313.03;;;8.25;70.58
47374;BME280;33123;50.118;10.272;2022-11-15T07:00:52;97314.53;;;8.21;71.81
47374;BME280;33123;50.118;10.272;2022-11-15T07:03:20;97139.81;;;7.02;71.35
47374;BME280;33123;50.118;10.272;2022-11-15T07:05:51;97093.88;;;6.95;71.27
47374;BME280;33123;50.118;10.272;2022-11-15T07:08:19;97091.63;;;6.86;70.95
47374;BME280;33123;50.118;10.272;2022-11-15T07:10:46;97030.94;;;6.44;70.71
47374;BME280;33123;50.118;10.272;2022-11-15T07:13:12;97131.56;;;7.27;71.20
47374;BME280;33123;50.118;10.272;2022-11-15T07:15:39;97069.31;;;7.01;71.00
47374;BME280;33123;50.118;10.272;2022-11-15T07:18:05;97292.41;;;8.51;70.90
47374;BME280;33123;50.118;10.272;2022-11-15T07:20:33;97279.97;;;8.63;71.75
47374;BME280;33123;50.118;10.272;2022-11-15T07:23:00;97028.41;;;7.33;71.23
47374;BME280;33123;50.118;10.272;2022-11-15T07:25:27;97246.34;;;9.09;70.16
47374;BME280;33123;50.118;10.272;2022-11-15T07:27:54;97170.88;;;8.82;68.29
47374;BME280;33123;50.118;10.272;2022-11-15T07:30:21;96890.50;;;7.81;66.73
47374;BME280;33123;50.118;10.272;2022-11-15T07:32:52;97099.66;;;9.85;65.19
47374;BME280;33123;50.118;10.272;2022-11-15T07:35:19;97289.00;;;11.90;62.19
47374;BME280;33123;50.118;10.272;2022-11-15T07:37:54;97049.13;;;10.97;59.52
47374;BME280;33123;50.118;10.272;2022-11-15T07:40:21;97196.38;;;12.66;58.05
47374;BME280;33123;50.118;10.272;2022-11-15T07:42:48;96959.53;;;11.72;55.90
47374;BME280;33123;50.118;10.272;2022-11-15T07:45:22;97099.16;;;13.32;53.19
47374;BME280;33123;50.118;10.272;2022-11-15T07:47:51;97297.72;;;15.30;51.78
47374;BME280;33123;50.118;10.272;2022-11-15T07:50:18;97118.44;;;14.62;50.07
47374;BME280;33123;50.118;10.272;2022-11-15T07:52:45;97174.91;;;15.57;49.46
47374;BME280;33123;50.118;10.272;2022-11-15T07:55:13;97176.63;;;16.13;47.73
47374;BME280;33123;50.118;10.272;2022-11-15T07:57:40;97116.56;;;16.12;45.99
47374;BME280;33123;50.118;10.272;2022-11-15T08:00:07;97188.97;;;17.14;45.91
47374;BME280;33123;50.118;10.272;2022-11-15T08:02:34;97296.56;;;18.53;45.01
47374;BME280;33123;50.118;10.272;2022-11-15T08:05:01;97300.69;;;18.98;43.03
47374;BME280;33123;50.118;10.272;2022-11-15T08:07:28;97235.94;;;18.84;42.02
47374;BME280;33123;50.118;10.272;2022-11-15T08:09:55;97083.34;;;17.85;40.88
47374;BME280;33123;50.118;10.272;2022-11-15T08:12:24;97086.41;;;18.01;40.64
47374;BME280;33123;50.118;10.272;2022-11-15T08:14:50;97291.81;;;19.29;40.84
47374;BME280;33123;50.118;10.272;2022-11-15T08:17:17;97135.03;;;18.07;40.86
47374;BME280;33123;50.118;10.272;2022-11-15T08:19:43;97154.75;;;17.97;41.46
47374;BME280;33123;50.118;10.272;2022-11-15T08:22:10;97203.72;;;18.01;42.22
47374;BME280;33123;50.118;10.272;2022-11-15T08:24:36;97157.53;;;17.61;42.80
47374;BME280;33123;50.118;10.272;2022-11-15T08:27:03;97068.31;;;16.82;43.54
47374;BME280;33123;50.118;10.272;2022-11-15T08:29:31;97289.13;;;18.41;43.71
47374;BME280;33123;50.118;10.272;2022-11-15T08:31:58;97048.88;;;16.82;43.52
47374;BME280;33123;50.118;10.272;2022-11-15T08:34:24;97119.81;;;17.45;43.60
47374;BME280;33123;50.118;10.272;2022-11-15T08:36:51;97278.63;;;18.76;42.96
47374;BME280;33123;50.118;10.272;2022-11-15T08:39:17;97276.00;;;18.84;42.48
47374;BME280;33123;50.118;10.272;2022-11-15T08:41:44;97027.16;;;17.33;43.03
47374;BME280;33123;50.118;10.272;2022-11-15T08:44:11;97270.91;;;19.31;42.37
47374;BME280;33123;50.118;10.272;2022-11-15T08:46:39;97269.22;;;19.70;41.72
47374;BME280;33123;50.118;10.272;2022-11-15T08:49:05;97134.34;;;19.24;40.37
47374;BME280;33123;50.118;10.272;2022-11-15T08:51:32;97258.66;;;20.64;38.80
47374;BME280;33123;50.118;10.272;2022-11-15T08:53:59;97119.03;;;20.15;38.52
47374;BME280;33123;50.118;10.272;2022-11-15T08:56:25;97203.31;;;20.97;38.03
47374;BME280;33123;50.118;10.272;2022-11-15T08:58:52;97048.91;;;20.30;37.71
47374;BME280;33123;50.118;10.272;2022-11-15T09:01:20;97261.72;;;22.17;36.67
47374;BME280;33123;50.118;10.272;2022-11-15T09:03:48;97252.69;;;22.46;35.90
47374;BME280;33123;50.118;10.272;2022-11-15T09:06:15;97250.34;;;22.69;35.63
47374;BME280;33123;50.118;10.272;2022-11-15T09:08:41;97238.28;;;22.87;35.80
47374;BME280;33123;50.118;10.272;2022-11-15T09:11:09;97059.13;;;21.78;34.20
47374;BME280;33123;50.118;10.272;2022-11-15T09:13:36;97097.41;;;22.24;35.21
47374;BME280;33123;50.118;10.272;2022-11-15T09:16:04;97237.00;;;23.34;34.56
47374;BME280;33123;50.118;10.272;2022-11-15T09:18:31;97234.28;;;23.46;34.27
47374;BME280;33123;50.118;10.272;2022-11-15T09:21:00;97233.56;;;23.61;34.33
47374;BME280;33123;50.118;10.272;2022-11-15T09:23:27;97056.19;;;22.56;34.55
47374;BME280;33123;50.118;10.272;2022-11-15T09:25:58;96995.28;;;22.32;34.36
47374;BME280;33123;50.118;10.272;2022-11-15T09:28:25;97229.16;;;23.97;34.29
47374;BME280;33123;50.118;10.272;2022-11-15T09:30:56;97064.56;;;23.07;33.96
47374;BME280;33123;50.118;10.272;2022-11-15T09:33:22;96928.16;;;22.32;32.74
47374;BME280;33123;50.118;10.272;2022-11-15T09:35:49;97097.28;;;23.53;33.80
47374;BME280;33123;50.118;10.272;2022-11-15T09:38:17;97128.25;;;23.91;33.27
47374;BME280;33123;50.118;10.272;2022-11-15T09:40:49;97153.97;;;24.36;33.82
47374;BME280;33123;50.118;10.272;2022-11-15T09:43:30;97059.25;;;23.83;33.52
47374;BME280;33123;50.118;10.272;2022-11-15T09:46:09;97202.16;;;24.88;33.13
47374;BME280;33123;50.118;10.272;2022-11-15T09:48:48;97095.59;;;24.08;32.67
47374;BME280;33123;50.118;10.272;2022-11-15T09:51:24;97033.38;;;23.78;33.28
47374;BME280;33123;50.118;10.272;2022-11-15T09:53:58;97203.88;;;24.96;33.06
47374;BME280;33123;50.118;10.272;2022-11-15T09:56:29;97046.09;;;24.13;33.21
47374;BME280;33123;50.118;10.272;2022-11-15T09:59:04;97034.88;;;24.27;32.75
47374;BME280;33123;50.118;10.272;2022-11-15T10:01:41;96975.03;;;24.17;32.24
47374;BME280;33123;50.118;10.272;2022-11-15T10:04:10;97197.34;;;25.91;32.47
47374;BME280;33123;50.118;10.272;2022-11-15T10:06:40;97198.91;;;26.15;29.98
47374;BME280;33123;50.118;10.272;2022-11-15T10:09:14;96908.53;;;24.37;30.29
47374;BME280;33123;50.118;10.272;2022-11-15T10:11:42;97037.19;;;25.41;29.42
47374;BME280;33123;50.118;10.272;2022-11-15T10:14:11;97130.31;;;26.19;29.53
47374;BME280;33123;50.118;10.272;2022-11-15T10:17:26;97027.31;;;25.71;29.78
47374;BME280;33123;50.118;10.272;2022-11-15T10:20:07;97156.31;;;26.77;31.30
47374;BME280;33123;50.118;10.272;2022-11-15T10:22:39;97163.28;;;26.81;30.29
47374;BME280;33123;50.118;10.272;2022-11-15T10:25:25;97001.38;;;25.90;29.60
47374;BME280;33123;50.118;10.272;2022-11-15T10:27:55;97164.13;;;26.85;28.72
47374;BME280;33123;50.118;10.272;2022-11-15T10:30:28;97166.63;;;25.99;29.45
47374;BME280;33123;50.118;10.272;2022-11-15T10:32:56;96947.13;;;24.06;29.93
47374;BME280;33123;50.118;10.272;2022-11-15T10:35:24;97067.13;;;24.39;30.65
47374;BME280;33123;50.118;10.272;2022-11-15T10:38:04;96900.53;;;22.60;31.60
47374;BME280;33123;50.118;10.272;2022-11-15T10:40:33;97160.28;;;23.80;31.97
47374;BME280;33123;50.118;10.272;2022-11-15T10:43:13;97080.88;;;22.74;32.95
47374;BME280;33123;50.118;10.272;2022-11-15T10:45:41;96950.06;;;21.45;33.34
47374;BME280;33123;50.118;10.272;2022-11-15T10:48:23;97149.19;;;22.36;34.32
47374;BME280;33123;50.118;10.272;2022-11-15T10:50:51;97145.94;;;22.43;34.70
47374;BME280;33123;50.118;10.272;2022-11-15T10:53:23;97042.34;;;21.56;35.26
47374;BME280;33123;50.118;10.272;2022-11-15T10:56:00;96947.75;;;21.11;35.75
47374;BME280;33123;50.118;10.272;2022-11-15T10:58:42;96878.22;;;20.56;35.23
47374;BME280;33123;50.118;10.272;2022-11-15T11:01:34;96953.56;;;21.13;34.88
47374;BME280;33123;50.118;10.272;2022-11-15T11:05:33;96685.88;;;18.93;35.65
47374;BME280;33123;50.118;10.272;2022-11-15T11:11:16;97100.09;;;20.20;38.00
47374;BME280;33123;50.118;10.272;2022-11-15T11:13:43;96908.38;;;18.50;39.30
47374;BME280;33123;50.118;10.272;2022-11-15T11:16:42;96591.81;;;16.13;39.98
47374;BME280;33123;50.118;10.272;2022-11-15T11:20:23;96633.03;;;16.02;40.95
47374;BME280;33123;50.118;10.272;2022-11-15T11:23:53;97102.00;;;18.82;41.40
47374;BME280;33123;50.118;10.272;2022-11-15T11:35:01;96993.19;;;17.87;41.71
47374;BME280;33123;50.118;10.272;2022-11-15T11:38:06;96854.56;;;16.73;42.67
47374;BME280;33123;50.118;10.272;2022-11-15T11:44:37;96620.88;;;14.66;43.77
47374;BME280;33123;50.118;10.272;2022-11-15T11:47:53;96952.16;;;16.86;44.31
47374;BME280;33123;50.118;10.272;2022-11-15T11:51:10;96666.13;;;14.84;45.26
47374;BME280;33123;50.118;10.272;2022-11-15T12:00:38;97097.84;;;17.39;45.77
47374;BME280;33123;50.118;10.272;2022-11-15T12:04:03;96724.38;;;14.89;45.38
47374;BME280;33123;50.118;10.272;2022-11-15T12:07:12;96810.09;;;15.39;45.36
47374;BME280;33123;50.118;10.272;2022-11-15T12:10:25;96815.22;;;15.36;46.33
47374;BME280;33123;50.118;10.272;2022-11-15T12:13:24;96711.63;;;14.63;46.23
47374;BME280;33123;50.118;10.272;2022-11-15T12:16:42;96927.72;;;15.67;46.41
47374;BME280;33123;50.118;10.272;2022-11-15T12:19:12;96931.34;;;15.85;46.68
47374;BME280;33123;50.118;10.272;2022-11-15T12:21:46;97074.06;;;16.62;46.62
47374;BME280;33123;50.118;10.272;2022-11-15T12:27:19;96879.00;;;15.58;47.32
47374;BME280;33123;50.118;10.272;2022-11-15T12:33:41;97069.47;;;16.90;47.04
47374;BME280;33123;50.118;10.272;2022-11-15T12:36:10;96687.25;;;14.47;46.92
47374;BME280;33123;50.118;10.272;2022-11-15T12:38:54;96890.81;;;15.79;47.01
47374;BME280;33123;50.118;10.272;2022-11-15T12:41:21;97053.72;;;17.02;47.06
47374;BME280;33123;50.118;10.272;2022-11-15T12:43:49;96875.22;;;15.87;46.97
47374;BME280;33123;50.118;10.272;2022-11-15T12:46:22;97058.69;;;16.95;46.85
47374;BME280;33123;50.118;10.272;2022-11-15T12:48:51;97053.53;;;16.99;46.55
47374;BME280;33123;50.118;10.272;2022-11-15T12:51:21;96931.75;;;16.15;46.65
47374;BME280;33123;50.118;10.272;2022-11-15T12:53:48;96816.09;;;15.45;47.10
47374;BME280;33123;50.118;10.272;2022-11-15T12:56:20;96910.22;;;16.02;47.10
47374;BME280;33123;50.118;10.272;2022-11-15T12:58:49;96982.75;;;16.53;47.31
47374;BME280;33123;50.118;10.272;2022-11-15T13:04:26;97025.34;;;16.75;47.57
47374;BME280;33123;50.118;10.272;2022-11-15T13:06:54;96727.72;;;14.81;47.54
47374;BME280;33123;50.118;10.272;2022-11-15T13:09:53;97006.50;;;16.85;48.13
47374;BME280;33123;50.118;10.272;2022-11-15T13:12:48;97005.28;;;16.92;47.99
47374;BME280;33123;50.118;10.272;2022-11-15T13:18:33;96697.03;;;15.02;47.18
47374;BME280;33123;50.118;10.272;2022-11-15T13:21:03;96819.25;;;15.83;47.60
47374;BME280;33123;50.118;10.272;2022-11-15T13:23:54;96759.53;;;15.44;47.26
47374;BME280;33123;50.118;10.272;2022-11-15T13:26:21;96990.63;;;17.03;47.66
47374;BME280;33123;50.118;10.272;2022-11-15T13:28:49;96730.69;;;15.15;47.72
47374;BME280;33123;50.118;10.272;2022-11-15T13:31:30;96996.25;;;17.01;47.55
47374;BME280;33123;50.118;10.272;2022-11-15T13:34:02;96799.59;;;15.70;47.73
47374;BME280;33123;50.118;10.272;2022-11-15T13:36:32;96795.31;;;15.47;47.74
47374;BME280;33123;50.118;10.272;2022-11-15T13:39:02;96994.47;;;16.88;48.10
47374;BME280;33123;50.118;10.272;2022-11-15T13:41:30;96985.00;;;16.82;48.18
47374;BME280;33123;50.118;10.272;2022-11-15T13:43:58;96871.16;;;16.03;48.52
47374;BME280;33123;50.118;10.272;2022-11-15T13:46:26;96984.69;;;16.61;48.64
47374;BME280;33123;50.118;10.272;2022-11-15T13:48:56;96979.72;;;16.46;49.04
47374;BME280;33123;50.118;10.272;2022-11-15T13:51:33;96984.56;;;16.44;49.23
47374;BME280;33123;50.118;10.272;2022-11-15T13:54:05;96976.50;;;16.35;49.58